Pointe-Claire, Canada
Current Conditions -  °F | °C
As of 7:15 AM on Sunday 21 Dec 2014 (Local Time) from CYUL Reporting Station
Light Snow Light Snow  
Wind Chill:   Ceiling: 1700
Heat Index: 16°   Visibility: 4mi
Dew Point: 14°   Wind: 7mph
Humidity: 93%   Direction: 60°ENE
Pressure: 30.38"   Gusts: NA
Location:  45.43°N, 73.75°W
Report Text: CYUL 211215Z 06006KT 4SM -SN BR SCT007 OVC017 M09/M10 A3038 RMK SF3SC5 SLP291
Loading
Personal Weather Stations






























Interactive Weather Map New forecast layout! Learn more

10-Day Weather Forecast

Advertisements
Track Severe Weather on mobile